tititudorancea.com
Station Historical Data
Daily Summary for January 8, 2018 Units:  Metric    English   Both
« Previous Day
Next Day »
Daily Weekly Monthly Yearly Custom
  High: Low: Average:
Temperature: -17.8 °C 12.4 °C 16.7 °C
Dew Point: -17.8 °C 6.3 °C 10.6 °C
Humidity: Humidity % 27 % 70 %
Wind Speed: 0 km/h 3.5 km/h 11.4 km/h
Wind Gust: 0 km/h - -
Wind:- - SSW
Pressure: 0 hPa 1008 hPa -
Precipitation: 0 mm    
Historical Graphs
 
 
Ararat weather Find more about Weather in Ararat, AU


 



 


Tabular Data for January 8, 2018
Time Temperature Dew Point Pressure Wind Wind Speed Wind Gust Humidity Rainfall Rate (Hourly)
-17.8 °C -17.8 °C 0 hPa Calm     Humidity % 0 mm
00:02 15.7 °C 10 °C 1010 hPa SSW 15.4 km/h 18.5 km/h 69 % 0 mm
00:05 15.6 °C 10.2 °C 1010 hPa North 12.2 km/h 16.1 km/h 70 % 0 mm
00:10 15.5 °C 10.1 °C 1010 hPa North 16.1 km/h 18.5 km/h 70 % 0 mm
00:13 15.4 °C 10.2 °C 1010 hPa SSW 11.4 km/h 20.4 km/h 71 % 0 mm
00:18 15.3 °C 10.1 °C 1010 hPa SSW 19 km/h 20.9 km/h 71 % 0 mm
00:19 15.3 °C 10.1 °C 1010 hPa SSW 20.1 km/h 27.8 km/h 71 % 0 mm
00:24 15.2 °C 9.9 °C 1010 hPa SSW 10.3 km/h 14.8 km/h 71 % 0 mm
00:29 15.1 °C 9.9 °C 1010 hPa SSW 7.1 km/h 13 km/h 71 % 0 mm
00:34 15 °C 10 °C 1010 hPa SSW 8.7 km/h 16.7 km/h 72 % 0 mm
00:39 14.9 °C 9.9 °C 1010.4 hPa SSW 4.7 km/h 7.4 km/h 72 % 0 mm
00:44 14.8 °C 10.1 °C 1010.4 hPa North 9.5 km/h 13 km/h 73 % 0 mm
00:48 14.8 °C 10 °C 1010 hPa SSW 7.1 km/h 11.1 km/h 73 % 0 mm
00:53 14.7 °C 9.9 °C 1010 hPa South 10.9 km/h 17.7 km/h 73 % 0 mm
00:56 14.7 °C 10.1 °C 1010 hPa SSW 9 km/h 14.8 km/h 74 % 0 mm
00:59 14.6 °C 10 °C 1010 hPa SSW 11.1 km/h 18.5 km/h 74 % 0 mm
01:02 14.6 °C 10 °C 1010 hPa South 16.9 km/h 24.1 km/h 74 % 0 mm
01:07 14.6 °C 10.2 °C 1010.4 hPa North 11.1 km/h 16.7 km/h 75 % 0 mm
01:12 14.6 °C 10.2 °C 1010.4 hPa SSW 7.9 km/h 11.1 km/h 75 % 0 mm
01:14 14.6 °C 10.2 °C 1010.7 hPa North 10.3 km/h 16.7 km/h 75 % 0 mm
01:19 14.6 °C 10.4 °C 1010.7 hPa SW 12.1 km/h 18.5 km/h 76 % 0 mm
01:23 14.5 °C 10.3 °C 1010.7 hPa SSW 12.1 km/h 20.4 km/h 76 % 0 mm
01:28 14.4 °C 10.3 °C 1011.4 hPa SW 10.9 km/h 20.4 km/h 76 % 0 mm
01:30 14.4 °C 10.4 °C 1011.4 hPa SW 7.6 km/h 11.1 km/h 77 % 0 mm
01:35 14.4 °C 10.4 °C 1011.4 hPa SW 11.1 km/h 20.4 km/h 77 % 0 mm
01:40 14.4 °C 10.4 °C 1011.4 hPa SSW 8.4 km/h 13 km/h 77 % 0 mm
01:44 14.3 °C 10.5 °C 1011.1 hPa SW 15.1 km/h 22.2 km/h 78 % 0 mm
01:49 14.3 °C 10.5 °C 1011.4 hPa SW 10.9 km/h 18.5 km/h 78 % 0 mm
01:54 14.2 °C 10.6 °C 1011.1 hPa North 12.7 km/h 18.5 km/h 79 % 0 mm
01:59 14.2 °C 10.6 °C 1010.7 hPa SSW 13 km/h 18.5 km/h 79 % 0 mm
02:04 14.2 °C 10.6 °C 1011.1 hPa SSW 6.6 km/h 8 km/h 79 % 0 mm
02:10 14.2 °C 10.6 °C 1011.7 hPa SSW 8.5 km/h 13 km/h 79 % 0 mm
02:15 14.2 °C 10.8 °C 1011.7 hPa SSW 7.7 km/h 18.5 km/h 80 % 0 mm
02:20 14.2 °C 10.8 °C 1011.4 hPa SSW 16.7 km/h 20.4 km/h 80 % 0 mm
02:22 14.2 °C 10.8 °C 1011.7 hPa SSW 14.2 km/h 19.3 km/h 80 % 0 mm
02:27 14.1 °C 10.7 °C 1011.7 hPa SSW 13.2 km/h 20.4 km/h 80 % 0 mm
02:32 14.1 °C 10.7 °C 1011.4 hPa SSW 9.5 km/h 12.9 km/h 80 % 0 mm
02:37 14.1 °C 10.7 °C 1011.4 hPa SSW 10.3 km/h 16.7 km/h 80 % 0 mm
02:38 14.1 °C 10.7 °C 1011.4 hPa North 13 km/h 18.5 km/h 80 % 0 mm
02:44 14.1 °C 10.9 °C 1011.1 hPa SSW 9.3 km/h 16.7 km/h 81 % 0 mm
02:48 14.1 °C 10.9 °C 1011.1 hPa SSW 10.1 km/h 18.5 km/h 81 % 0 mm
02:53 14.1 °C 10.9 °C 1010.7 hPa North 9.7 km/h 11.1 km/h 81 % 0 mm
02:56 14.1 °C 10.9 °C 1011.1 hPa South 4.7 km/h 11.1 km/h 81 % 0 mm
03:01 14.1 °C 10.9 °C 1011.1 hPa South 9.2 km/h 13 km/h 81 % 0 mm
03:03 14.1 °C 10.9 °C 1010.7 hPa South 6.3 km/h 9.7 km/h 81 % 0 mm
03:07 14.1 °C 10.9 °C 1010.7 hPa South 8 km/h 13 km/h 81 % 0 mm
03:11 14.1 °C 10.8 °C 1010.4 hPa South 8.7 km/h 9.3 km/h 81 % 0 mm
03:16 14.1 °C 10.8 °C 1009.7 hPa South 7.1 km/h 14.5 km/h 81 % 0 mm
03:21 13.9 °C 10.9 °C 1009.7 hPa North 10.6 km/h 14.8 km/h 82 % 0 mm
03:26 13.8 °C 10.9 °C 1010 hPa SSW 13.4 km/h 16.7 km/h 83 % 0 mm
03:31 13.7 °C 11 °C 1010 hPa SSW 11.6 km/h 18.5 km/h 84 % 0 mm
03:36 13.6 °C 10.9 °C 1010 hPa SSW 12.7 km/h 18.5 km/h 84 % 0 mm
03:38 13.6 °C 10.9 °C 1009.7 hPa South 13.8 km/h 17.7 km/h 84 % 0 mm
03:44 13.4 °C 10.9 °C 1009.7 hPa SSW 13.5 km/h 18.5 km/h 85 % 0 mm
03:49 13.4 °C 10.9 °C 1009.4 hPa SSE 16.3 km/h 20.4 km/h 85 % 0 mm
03:54 13.3 °C 10.8 °C 1009 hPa South 6.6 km/h 9.3 km/h 85 % 0 mm
03:55 13.3 °C 10.8 °C 1009.4 hPa South 12.1 km/h 16.7 km/h 85 % 0 mm
04:00 13.2 °C 10.9 °C 1009.4 hPa South 9.5 km/h 13 km/h 86 % 0 mm
04:02 13.2 °C 10.9 °C 1009.4 hPa South 9.3 km/h 17.7 km/h 86 % 0 mm
04:07 13.2 °C 10.9 °C 1009.4 hPa South 4.3 km/h 9.3 km/h 86 % 0 mm
04:08 13.2 °C 10.9 °C 1009.4 hPa South 5.3 km/h 8 km/h 86 % 0 mm
04:13 13.2 °C 10.9 °C 1009.4 hPa SSW 7.6 km/h 11.1 km/h 86 % 0 mm
04:14 13.1 °C 10.8 °C 1009.4 hPa SSW 12.6 km/h 14.8 km/h 86 % 0 mm
04:20 13 °C 10.9 °C 1009.4 hPa South 8.9 km/h 18.5 km/h 87 % 0 mm
04:23 13 °C 10.9 °C 1009.4 hPa South 8.9 km/h 11.1 km/h 87 % 0 mm
04:28 12.9 °C 10.8 °C 1009.4 hPa SSW 8.7 km/h 14.8 km/h 87 % 0 mm
04:33 12.8 °C 10.9 °C 1009.4 hPa North 7.9 km/h 14.8 km/h 88 % 0 mm
04:35 12.8 °C 10.9 °C 1009.4 hPa North 14 km/h 14.8 km/h 88 % 0 mm
04:40 12.8 °C 10.8 °C 1009.7 hPa South 9.7 km/h 16.7 km/h 88 % 0 mm
04:45 12.8 °C 10.8 °C 1009.7 hPa South 8.9 km/h 14.5 km/h 88 % 0 mm
04:48 12.8 °C 11 °C 1009.7 hPa SSW 7.6 km/h 11.1 km/h 89 % 0 mm
04:49 12.7 °C 10.9 °C 1009.7 hPa SSW 10.5 km/h 13 km/h 89 % 0 mm
04:53 12.7 °C 10.9 °C 1010 hPa SSW 9.5 km/h 14.8 km/h 89 % 0 mm
04:58 12.7 °C 10.9 °C 1010 hPa North 10.6 km/h 16.7 km/h 89 % 0 mm
05:03 12.7 °C 10.9 °C 1010 hPa South 8.9 km/h 18.5 km/h 89 % 0 mm
05:09 12.7 °C 10.9 °C 1010 hPa South 14.6 km/h 22.2 km/h 89 % 0 mm
05:14 12.6 °C 11 °C 1010 hPa North 11.6 km/h 14.8 km/h 90 % 0 mm
05:20 12.6 °C 11 °C 1010 hPa SSW 10.3 km/h 22.2 km/h 90 % 0 mm
05:25 12.6 °C 11 °C 1010.4 hPa North 10.8 km/h 14.8 km/h 90 % 0 mm
05:30 12.6 °C 10.8 °C 1010.4 hPa South 10.6 km/h 18.5 km/h 89 % 0 mm
05:34 12.6 °C 11 °C 1010.4 hPa South 8.5 km/h 14.8 km/h 90 % 0 mm
05:39 12.6 °C 10.9 °C 1010.7 hPa South 6 km/h 11.3 km/h 90 % 0 mm
05:44 12.5 °C 10.9 °C 1010.4 hPa North 9.5 km/h 13 km/h 90 % 0 mm
05:48 12.5 °C 10.9 °C 1010.4 hPa North 6.3 km/h 14.8 km/h 90 % 0 mm
05:53 12.5 °C 10.9 °C 1010.7 hPa South 4.5 km/h 11.3 km/h 90 % 0 mm
05:54 12.5 °C 10.9 °C 1010.7 hPa South 7.7 km/h 11.3 km/h 90 % 0 mm
05:59 12.5 °C 10.9 °C 1010.7 hPa South 9.5 km/h 13 km/h 90 % 0 mm
06:05 12.4 °C 10.8 °C 1010.7 hPa South 6.9 km/h 11.1 km/h 90 % 0 mm
06:10 12.4 °C 10.8 °C 1011.1 hPa North 5.8 km/h 11.1 km/h 90 % 0 mm
06:12 12.5 °C 10.9 °C 1011.1 hPa South 7.2 km/h 9.3 km/h 90 % 0 mm
06:17 12.4 °C 10.8 °C 1011.4 hPa South 9.3 km/h 13 km/h 90 % 0 mm
06:23 12.4 °C 10.8 °C 1011.4 hPa South 10.8 km/h 14.8 km/h 90 % 0 mm
06:24 12.4 °C 10.8 °C 1011.4 hPa North 10.6 km/h 13 km/h 90 % 0 mm
06:26 12.4 °C 10.8 °C 1011.4 hPa North 11.1 km/h 14.8 km/h 90 % 0 mm
06:31 12.4 °C 10.8 °C 1011.7 hPa North 10.1 km/h 12.9 km/h 90 % 0 mm
06:36 12.4 °C 10.8 °C 1011.7 hPa North 7.6 km/h 14.8 km/h 90 % 0 mm
06:41 12.4 °C 10.8 °C 1011.7 hPa South 6.4 km/h 9.3 km/h 90 % 0 mm
06:46 12.4 °C 10.8 °C 1011.7 hPa South 7.2 km/h 14.8 km/h 90 % 0 mm
06:51 12.4 °C 10.8 °C 1011.7 hPa South 6.3 km/h 9.3 km/h 90 % 0 mm
06:56 12.5 °C 10.9 °C 1011.7 hPa South 8.4 km/h 14.8 km/h 90 % 0 mm
07:01 12.5 °C 10.9 °C 1011.4 hPa South 12.4 km/h 22.2 km/h 90 % 0 mm
07:07 12.4 °C 10.8 °C 1011.4 hPa South 11.1 km/h 16.7 km/h 90 % 0 mm
07:12 12.4 °C 10.8 °C 1011.4 hPa South 9.7 km/h 18.5 km/h 90 % 0 mm
07:13 12.4 °C 10.8 °C 1011.7 hPa South 8.4 km/h 14.8 km/h 90 % 0 mm
07:18 12.4 °C 10.8 °C 1011.7 hPa SW 6 km/h 13 km/h 90 % 0 mm
07:22 12.4 °C 10.8 °C 1011.7 hPa North 10 km/h 16.7 km/h 90 % 0 mm
07:23 12.5 °C 10.9 °C 1012.1 hPa SSW 7.2 km/h 16.7 km/h 90 % 0 mm
07:28 12.5 °C 10.9 °C 1012.1 hPa South 7.1 km/h 18.5 km/h 90 % 0 mm
07:33 12.5 °C 10.9 °C 1012.1 hPa South 5.8 km/h 13 km/h 90 % 0 mm
07:35 12.6 °C 10.9 °C 1012.1 hPa South 11.1 km/h 16.7 km/h 90 % 0 mm
07:40 12.6 °C 11 °C 1012.1 hPa South 10.1 km/h 16.7 km/h 90 % 0 mm
07:45 12.7 °C 11.1 °C 1012.1 hPa South 11.9 km/h 16.7 km/h 90 % 0 mm
07:52 12.9 °C 11.3 °C 1012.1 hPa South 10.1 km/h 18.5 km/h 90 % 0 mm
07:57 13.1 °C 11.4 °C 1012.1 hPa South 10.1 km/h 14.5 km/h 90 % 0 mm
08:02 13.3 °C 11.5 °C 1012.1 hPa SSW 7.6 km/h 20.4 km/h 89 % 0 mm
08:07 13.4 °C 11.4 °C 1012.1 hPa South 13 km/h 24.1 km/h 88 % 0 mm
08:08 13.4 °C 11.4 °C 1012.1 hPa South 11.9 km/h 18.5 km/h 88 % 0 mm
08:13 13.5 °C 11.6 °C 1012.1 hPa South 10.9 km/h 16.7 km/h 88 % 0 mm
08:18 13.6 °C 11.5 °C 1012.1 hPa North 14.6 km/h 22.2 km/h 87 % 0 mm
08:23 13.7 °C 11.6 °C 1012.1 hPa South 15.8 km/h 20.9 km/h 87 % 0 mm
08:28 13.8 °C 11.7 °C 1012.1 hPa North 10.9 km/h 16.7 km/h 87 % 0 mm
08:31 14.1 °C 11.8 °C 1012.1 hPa South 8 km/h 16.1 km/h 86 % 0 mm
08:37 14.3 °C 11.8 °C 1012.1 hPa South 15.9 km/h 20.9 km/h 85 % 0 mm
08:42 14.1 °C 11.4 °C 1012.4 hPa South 18.2 km/h 20.4 km/h 84 % 0 mm
08:45 14.1 °C 11.6 °C 1012.4 hPa South 23.8 km/h 29.6 km/h 85 % 0 mm
08:46 14.2 °C 11.7 °C 1012.4 hPa South 11.9 km/h 29.6 km/h 85 % 0 mm
08:51 14.4 °C 11.9 °C 1012.4 hPa SSE 13.5 km/h 18.5 km/h 85 % 0 mm
08:56 14.7 °C 12 °C 1012.4 hPa SSE 14.8 km/h 24.1 km/h 84 % 0 mm
08:59 14.7 °C 11.9 °C 1012.4 hPa South 13.8 km/h 22.2 km/h 83 % 0 mm
09:04 14.7 °C 11.8 °C 1012.4 hPa SSE 8.2 km/h 18.5 km/h 83 % 0 mm
09:09 14.7 °C 11.7 °C 1012.4 hPa SSE 9.3 km/h 22.2 km/h 82 % 0 mm
09:14 14.8 °C 11.8 °C 1012.4 hPa South 14.5 km/h 18.5 km/h 82 % 0 mm
09:15 14.8 °C 11.7 °C 1012.4 hPa South 14.5 km/h 18.5 km/h 82 % 0 mm
09:20 14.8 °C 11.7 °C 1012.4 hPa South 15 km/h 20.9 km/h 82 % 0 mm
09:22 14.8 °C 11.7 °C 1012.4 hPa North 12.9 km/h 24.1 km/h 82 % 0 mm
09:28 15 °C 11.9 °C 1012.1 hPa North 6.4 km/h 20.4 km/h 82 % 0 mm
09:38 15.2 °C 11.9 °C 1012.1 hPa South 13.5 km/h 20.4 km/h 81 % 0 mm
09:39 15.2 °C 11.9 °C 1012.1 hPa North 12.2 km/h 18.5 km/h 81 % 0 mm
09:44 15.4 °C 12.5 °C 1012.1 hPa SSW 9.3 km/h 16.7 km/h 83 % 0 mm
09:47 15.7 °C 12.2 °C 1011.7 hPa South 12.1 km/h 18.5 km/h 80 % 0 mm
09:52 15.9 °C 12.1 °C 1012.1 hPa SSE 16.1 km/h 22.2 km/h 78 % 0 mm
09:57 16.1 °C 12.1 °C 1012.1 hPa SSE 15.9 km/h 24.1 km/h 77 % 0 mm
10:02 16.1 °C 12 °C 1012.1 hPa SSE 18.8 km/h 27.8 km/h 77 % 0 mm
10:04 16.1 °C 12.1 °C 1012.1 hPa SSE 13.4 km/h 20.4 km/h 77 % 0 mm
10:09 16.3 °C 12.2 °C 1012.1 hPa SW 12.6 km/h 20.4 km/h 77 % 0 mm
10:13 16.4 °C 12.2 °C 1012.1 hPa South 15 km/h 25.9 km/h 76 % 0 mm
10:18 16.9 °C 12.4 °C 1012.1 hPa South 14.8 km/h 20.4 km/h 75 % 0 mm
10:21 17.1 °C 12.4 °C 1012.1 hPa SSE 11.9 km/h 22.2 km/h 74 % 0 mm
10:26 17.4 °C 12.6 °C 1012.1 hPa SSE 15.4 km/h 19.3 km/h 73 % 0 mm
10:29 17.5 °C 12.4 °C 1012.1 hPa SSE 12.6 km/h 22.2 km/h 72 % 0 mm
10:34 17.6 °C 12.3 °C 1011.7 hPa South 18.8 km/h 24.1 km/h 71 % 0 mm
10:38 17.8 °C 12.4 °C 1012.1 hPa South 14.3 km/h 24.1 km/h 71 % 0 mm
10:43 17.8 °C 12 °C 1011.7 hPa SSW 16.4 km/h 24.1 km/h 69 % 0 mm
10:48 18.1 °C 12.5 °C 1011.7 hPa SE 15 km/h 18.5 km/h 70 % 0 mm
10:53 18.4 °C 12.6 °C 1012.1 hPa South 16.3 km/h 20.9 km/h 69 % 0 mm
10:58 18.5 °C 12.5 °C 1012.1 hPa SSE 16.4 km/h 24.1 km/h 68 % 0 mm
11:03 19.1 °C 12.8 °C 1011.7 hPa South 13.4 km/h 16.7 km/h 67 % 0 mm
11:08 19.5 °C 13 °C 1011.7 hPa SE 12.2 km/h 18.5 km/h 66 % 0 mm
11:13 19.7 °C 12.5 °C 1011.7 hPa SSE 13.2 km/h 14.8 km/h 63 % 0 mm
11:19 19.7 °C 12.5 °C 1011.7 hPa SSE 14.8 km/h 22.2 km/h 63 % 0 mm
11:22 19.8 °C 12.6 °C 1011.7 hPa SSE 9.3 km/h 18.5 km/h 63 % 0 mm
11:27 19.9 °C 12.4 °C 1011.7 hPa SSE 10.6 km/h 20.4 km/h 62 % 0 mm
11:32 20.1 °C 12.6 °C 1011.7 hPa SE 15.4 km/h 22.2 km/h 62 % 0 mm
11:37 20.6 °C 12.5 °C 1011.7 hPa South 11.6 km/h 18.5 km/h 60 % 0 mm
11:38 20.6 °C 12.6 °C 1011.7 hPa South 13 km/h 18.5 km/h 60 % 0 mm
11:43 20.3 °C 12.3 °C 1011.7 hPa SSE 14.8 km/h 22.2 km/h 60 % 0 mm
11:47 20.3 °C 12.3 °C 1011.7 hPa South 7.4 km/h 14.8 km/h 60 % 0 mm
11:52 20.2 °C 12.2 °C 1011.7 hPa SSE 8.4 km/h 16.7 km/h 60 % 0 mm
11:57 20.7 °C 12.4 °C 1011.7 hPa SSE 10.8 km/h 14.8 km/h 59 % 0 mm
11:59 20.9 °C 12.3 °C 1011.7 hPa South 7.6 km/h 13 km/h 58 % 0 mm
12:04 21.1 °C 12.5 °C 1011.7 hPa SSE 13.4 km/h 20.4 km/h 58 % 0 mm
12:09 21.4 °C 12 °C 1011.7 hPa SSE 13.4 km/h 18.5 km/h 55 % 0 mm
12:14 21.5 °C 12.1 °C 1011.4 hPa SSE 7.6 km/h 16.7 km/h 55 % 0 mm
12:19 21.7 °C 11.9 °C 1011.4 hPa SSE 13 km/h 18.5 km/h 54 % 0 mm
12:22 21.7 °C 12 °C 1011.4 hPa SE 15 km/h 16.7 km/h 54 % 0 mm
12:27 21.8 °C 12.1 °C 1011.4 hPa South 12.9 km/h 18.5 km/h 54 % 0 mm
12:32 21.7 °C 11.7 °C 1011.4 hPa South 13.2 km/h 18.5 km/h 53 % 0 mm
12:37 21.6 °C 12.2 °C 1011.4 hPa SSW 8.7 km/h 14.8 km/h 55 % 0 mm
12:39 21.7 °C 11.9 °C 1011.4 hPa South 8.4 km/h 13 km/h 54 % 0 mm
12:44 21.7 °C 11.7 °C 1011.1 hPa South 11.9 km/h 18.5 km/h 53 % 0 mm
12:49 21.9 °C 11.3 °C 1011.4 hPa South 12.4 km/h 18.5 km/h 51 % 0 mm
12:54 21.7 °C 11.4 °C 1011.4 hPa South 6 km/h 9.7 km/h 52 % 0 mm
12:59 22 °C 11.4 °C 1011.1 hPa SSE 10.1 km/h 18.5 km/h 51 % 0 mm
13:04 22.4 °C 11.4 °C 1011.1 hPa South 12.6 km/h 16.7 km/h 50 % 0 mm
13:08 22.4 °C 11.5 °C 1011.1 hPa South 11.1 km/h 14.8 km/h 50 % 0 mm
13:13 22.7 °C 11.8 °C 1010.7 hPa South 6.8 km/h 16.7 km/h 50 % 0 mm
13:18 22.9 °C 11 °C 1010.7 hPa SSE 12.6 km/h 22.2 km/h 47 % 0 mm
13:19 22.9 °C 11.3 °C 1010.7 hPa SE 14 km/h 16.7 km/h 48 % 0 mm
13:24 22.9 °C 11.3 °C 1010.7 hPa South 5.6 km/h 14.8 km/h 48 % 0 mm
13:30 23.4 °C 11.1 °C 1010.7 hPa SSW 16.6 km/h 17.7 km/h 46 % 0 mm
13:35 23.3 °C 11.4 °C 1010.7 hPa South 11.9 km/h 14.8 km/h 47 % 0 mm
13:40 23.7 °C 11.1 °C 1010.7 hPa SE 9.5 km/h 13 km/h 45 % 0 mm
13:44 24.4 °C 10.3 °C 1010.7 hPa SSE 13.4 km/h 18.5 km/h 41 % 0 mm
13:49 24.7 °C 10.2 °C 1010.7 hPa SSW 14.2 km/h 18.5 km/h 40 % 0 mm
13:54 24.4 °C 10.3 °C 1010.4 hPa SSW 10.5 km/h 14.8 km/h 41 % 0 mm
13:55 24.4 °C 10.3 °C 1010.7 hPa SSW 10.9 km/h 22.5 km/h 41 % 0 mm
14:01 24.3 °C 10.6 °C 1010.4 hPa South 3.5 km/h 7.4 km/h 42 % 0 mm
14:06 25 °C 10.1 °C 1010.4 hPa South 10.3 km/h 14.5 km/h 39 % 0 mm
14:11 24.7 °C 9.4 °C 1010.4 hPa South 8.5 km/h 13 km/h 38 % 0 mm
14:13 24.6 °C 8.5 °C 1010.4 hPa SSW 12.7 km/h 18.5 km/h 36 % 0 mm
14:21 24.7 °C 9 °C 1010 hPa South 5.5 km/h 7.4 km/h 37 % 0 mm
14:28 25.3 °C 9.2 °C 1010 hPa SSE 7.2 km/h 9.3 km/h 36 % 0 mm
14:33 25.6 °C 9.8 °C 1010 hPa SSE 7.9 km/h 11.3 km/h 37 % 0 mm
14:39 25.7 °C 9.1 °C 1010 hPa SW 16.7 km/h 20.4 km/h 35 % 0 mm
14:58 26.3 °C 8.7 °C 1009.7 hPa South 3.9 km/h 9.3 km/h 33 % 0 mm
15:11 26.4 °C 8.8 °C 1009.4 hPa SW 6.1 km/h 9.3 km/h 33 % 0 mm
15:16 26.5 °C 8.9 °C 1009.4 hPa SE 8.4 km/h 11.3 km/h 33 % 0 mm
15:36 26.6 °C 7.6 °C 1009 hPa South 11.3 km/h 16.7 km/h 30 % 0 mm
15:45 26.7 °C 7.7 °C 1009 hPa South 8.2 km/h 13 km/h 30 % 0 mm
15:56 27 °C 7.9 °C 1009 hPa South 13.2 km/h 18.5 km/h 30 % 0 mm
16:09 27.1 °C 7.6 °C 1008.7 hPa SSE 3.5 km/h 11.3 km/h 29 % 0 mm
16:29 26.9 °C 6.3 °C 1008.7 hPa SSW 3.9 km/h 5.6 km/h 27 % 0 mm
17:04 27.4 °C 6.7 °C 1008 hPa South 5.3 km/h 9.7 km/h 27 % 0 mm
18:37 27.9 °C 7.2 °C 1008 hPa SSW 8.7 km/h 11.3 km/h 27 % 0 mm
19:01 27.1 °C 8 °C 1008 hPa South 14.3 km/h 18.5 km/h 30 % 0 mm
19:32 25.9 °C 8.4 °C 1008.4 hPa North 15.6 km/h 20.4 km/h 33 % 0 mm
19:42 25.7 °C 8.6 °C 1008.4 hPa South 10.1 km/h 14.8 km/h 34 % 0 mm
19:47 25.6 °C 8.6 °C 1008.4 hPa SSW 16.6 km/h 24.1 km/h 34 % 0 mm
20:00 25.1 °C 8.6 °C 1008.7 hPa South 11.1 km/h 25.9 km/h 35 % 0 mm
20:07 24.6 °C 8.9 °C 1008.7 hPa SSW 9.8 km/h 16.1 km/h 37 % 0 mm
20:14 24.2 °C 8.9 °C 1009 hPa South 16.6 km/h 22.2 km/h 38 % 0 mm
20:16 24 °C 8.8 °C 1009 hPa SSW 18.8 km/h 27.8 km/h 38 % 0 mm
20:21 23.4 °C 9.4 °C 1009.4 hPa South 22.5 km/h 31.5 km/h 41 % 0 mm
20:26 22.4 °C 10.2 °C 1009.4 hPa SSW 19 km/h 27.8 km/h 46 % 0 mm
20:31 21.6 °C 10.1 °C 1009.7 hPa South 21.6 km/h 31.5 km/h 48 % 0 mm
20:36 20.9 °C 10.1 °C 1009.7 hPa SSW 25.4 km/h 33.3 km/h 50 % 0 mm
20:41 20.5 °C 10.3 °C 1009.7 hPa North 16.3 km/h 22.2 km/h 52 % 0 mm
20:42 20.4 °C 10.2 °C 1009.7 hPa SSW 22.5 km/h 31.5 km/h 52 % 0 mm
20:43 20.3 °C 10.2 °C 1009.7 hPa SSW 12.4 km/h 18.5 km/h 52 % 0 mm
20:48 19.9 °C 10.1 °C 1010 hPa South 10.8 km/h 29.6 km/h 53 % 0 mm
20:53 19.6 °C 10.1 °C 1010 hPa South 21.4 km/h 31.5 km/h 54 % 0 mm
20:58 19.4 °C 10.1 °C 1010 hPa South 17.4 km/h 24.1 km/h 55 % 0 mm
21:00 19.3 °C 10 °C 1010 hPa North 12.6 km/h 25.9 km/h 55 % 0 mm
21:03 19.2 °C 9.9 °C 1010 hPa SW 17.9 km/h 25.9 km/h 55 % 0 mm
21:08 18.9 °C 9.9 °C 1010 hPa North 12.7 km/h 22.2 km/h 56 % 0 mm
21:11 18.8 °C 9.9 °C 1010 hPa SSW 16.9 km/h 31.5 km/h 56 % 0 mm
21:16 18.7 °C 10 °C 1010 hPa South 15.9 km/h 24.1 km/h 57 % 0 mm
21:21 18.6 °C 9.9 °C 1010.4 hPa South 12.9 km/h 17.7 km/h 57 % 0 mm
21:26 18.3 °C 9.9 °C 1010.4 hPa SSE 10.9 km/h 20.9 km/h 58 % 0 mm
21:31 18.2 °C 9.8 °C 1010.4 hPa South 12.2 km/h 16.7 km/h 58 % 0 mm
21:41 17.6 °C 9.7 °C 1010.7 hPa South 17.1 km/h 24.1 km/h 60 % 0 mm
21:46 17.4 °C 9.6 °C 1010.7 hPa South 17.2 km/h 27.8 km/h 60 % 0 mm
21:49 17.3 °C 9.5 °C 1010.7 hPa South 15.1 km/h 29.6 km/h 60 % 0 mm
21:54 17.1 °C 9.5 °C 1010.7 hPa South 16.3 km/h 29.6 km/h 61 % 0 mm
22:04 16.7 °C 9.6 °C 1010.7 hPa South 12.6 km/h 22.2 km/h 63 % 0 mm
22:09 16.4 °C 9.4 °C 1011.1 hPa South 14.6 km/h 24.1 km/h 63 % 0 mm
22:11 16.4 °C 9.3 °C 1011.1 hPa South 9.7 km/h 20.4 km/h 63 % 0 mm
22:16 16.2 °C 9.4 °C 1011.1 hPa South 14 km/h 25.9 km/h 64 % 0 mm
22:21 16.1 °C 9.5 °C 1011.1 hPa SSW 16.6 km/h 22.2 km/h 65 % 0 mm
22:23 16 °C 9.4 °C 1011.1 hPa South 14.8 km/h 22.2 km/h 65 % 0 mm
22:28 15.9 °C 9.6 °C 1011.4 hPa SSW 12.9 km/h 20.9 km/h 66 % 0 mm
22:33 15.7 °C 9.6 °C 1011.4 hPa South 14.6 km/h 22.2 km/h 67 % 0 mm
22:38 15.6 °C 9.7 °C 1011.4 hPa SSW 15.9 km/h 20.4 km/h 68 % 0 mm
22:43 15.4 °C 9.7 °C 1011.4 hPa North 11.1 km/h 18.5 km/h 69 % 0 mm
22:49 15.2 °C 9.6 °C 1011.4 hPa North 10.5 km/h 16.7 km/h 69 % 0 mm
22:54 15.1 °C 9.7 °C 1011.4 hPa North 12.1 km/h 16.7 km/h 70 % 0 mm
22:57 15 °C 9.6 °C 1011.4 hPa SSW 13 km/h 16.7 km/h 70 % 0 mm
23:03 14.9 °C 9.7 °C 1011.4 hPa North 14.5 km/h 22.2 km/h 71 % 0 mm
23:08 14.7 °C 9.5 °C 1011.4 hPa SSW 10.3 km/h 18.5 km/h 71 % 0 mm
23:09 14.7 °C 9.5 °C 1011.7 hPa South 11.6 km/h 18.5 km/h 71 % 0 mm
23:14 14.7 °C 9.7 °C 1011.7 hPa North 14 km/h 22.2 km/h 72 % 0 mm
23:18 14.6 °C 9.6 °C 1011.4 hPa SSW 11.3 km/h 16.7 km/h 72 % 0 mm
23:23 14.4 °C 9.4 °C 1011.4 hPa North 8.2 km/h 16.7 km/h 72 % 0 mm
23:28 14.4 °C 9.6 °C 1011.4 hPa SSW 14.3 km/h 14.8 km/h 73 % 0 mm
23:33 14.3 °C 9.5 °C 1011.4 hPa North 10.3 km/h 13 km/h 73 % 0 mm
23:43 14 °C 9.4 °C 1011.4 hPa South 8.2 km/h 11.1 km/h 74 % 0 mm
23:50 13.9 °C 9.6 °C 1011.4 hPa South 9.3 km/h 16.7 km/h 75 % 0 mm
23:55 13.8 °C 9.5 °C 1011.4 hPa North 10.8 km/h 22.5 km/h 75 % 0 mm
23:59 13.8 °C 9.6 °C 1011.4 hPa North 4.7 km/h 7.4 km/h 76 % 0 mm
Ararat Weather
Compliments of Weather Underground - 2.25 mb
Click here to send mail.


ABOUT

Live weather data from Ararat, Victoria, Australia, 3377
Data uploaded from Cumulus every 5 minutes to Weather Underground.
This site then downloads the raw data for formatting and display.
Metric and imperial data can be displayed. Graphs and historical data available.
Includes Sun and Moon times and rain image live from BOM.

Check out Ararat Weather on Facebook, Twitter and Google +

Help support ongoing costs by checking out the ads





Follow @AraratWeather